DAL3157 KATL-KMSY
Flight info
| Callsign | DAL3157 |
|---|---|
| Flight time | 1h 15m |
| Altitude | 36000 |
| Route | POUNC2 GRGIA SJI MNSTR1 |
| Aircraft | A321/M-SDE3FGHIRWY/LB1 |
Departure
| Time | 2026-05-04 21:24 |
|---|---|
| Airport | Hartsfield Jackson Atlanta International Airport (KATL) |
Arrival
| Time | 2026-05-04 22:39 |
|---|---|
| Airport | Louis Armstrong New Orleans International Airport (KMSY) |
| Time | Latitude | Longitude | Altitude | Speed | Heading |
|---|---|---|---|---|---|
| 2026-05-04 21:09 | 33.63842 | -84.43865 | 1021 ft | 0 kts | 270° |
| 2026-05-04 21:14 | 33.63842 | -84.43849 | 1021 ft | 2 kts | 270° |
| 2026-05-04 21:14 | 33.63842 | -84.43831 | 1021 ft | 2 kts | 270° |
| 2026-05-04 21:14 | 33.63842 | -84.43813 | 1021 ft | 2 kts | 270° |
| 2026-05-04 21:15 | 33.63842 | -84.43796 | 1021 ft | 1 kts | 270° |
| 2026-05-04 21:15 | 33.63842 | -84.43787 | 1021 ft | 0 kts | 309° |
| 2026-05-04 21:15 | 33.63837 | -84.43782 | 1021 ft | 0 kts | 324° |
| 2026-05-04 21:15 | 33.63837 | -84.43781 | 1021 ft | 0 kts | 324° |
| 2026-05-04 21:18 | 33.63847 | -84.43788 | 1021 ft | 4 kts | 336° |
| 2026-05-04 21:18 | 33.63906 | -84.43790 | 1021 ft | 12 kts | 4° |
| 2026-05-04 21:18 | 33.64013 | -84.43787 | 1021 ft | 18 kts | 359° |
| 2026-05-04 21:18 | 33.64162 | -84.43788 | 1021 ft | 23 kts | 1° |
| 2026-05-04 21:19 | 33.64347 | -84.43788 | 1021 ft | 28 kts | 359° |
| 2026-05-04 21:19 | 33.64458 | -84.43722 | 1021 ft | 19 kts | 86° |
| 2026-05-04 21:19 | 33.64459 | -84.43536 | 1021 ft | 24 kts | 91° |
| 2026-05-04 21:19 | 33.64455 | -84.43309 | 1021 ft | 29 kts | 90° |
| 2026-05-04 21:20 | 33.64458 | -84.43051 | 1021 ft | 32 kts | 90° |
| 2026-05-04 21:20 | 33.64464 | -84.42765 | 1021 ft | 35 kts | 85° |
| 2026-05-04 21:20 | 33.64469 | -84.42454 | 1016 ft | 39 kts | 91° |
| 2026-05-04 21:20 | 33.64529 | -84.42130 | 1012 ft | 41 kts | 71° |
| 2026-05-04 21:21 | 33.64542 | -84.41773 | 1006 ft | 44 kts | 91° |
| 2026-05-04 21:21 | 33.64542 | -84.41400 | 1011 ft | 45 kts | 89° |
| 2026-05-04 21:21 | 33.64543 | -84.41021 | 1020 ft | 45 kts | 91° |
| 2026-05-04 21:21 | 33.64560 | -84.40784 | 1028 ft | 20 kts | 70° |
| 2026-05-04 21:22 | 33.64571 | -84.40623 | 1033 ft | 13 kts | 86° |
| 2026-05-04 21:22 | 33.64652 | -84.40563 | 1034 ft | 18 kts | 351° |
| 2026-05-04 21:22 | 33.64681 | -84.40613 | 1034 ft | 0 kts | 268° |
| 2026-05-04 21:23 | 33.64680 | -84.40649 | 1033 ft | 19 kts | 268° |
| 2026-05-04 21:23 | 33.64677 | -84.41134 | 1017 ft | 94 kts | 270° |
| 2026-05-04 21:23 | 33.64676 | -84.42192 | 1012 ft | 154 kts | 271° |
| 2026-05-04 21:23 | 33.64689 | -84.43558 | 1403 ft | 166 kts | 268° |
| 2026-05-04 21:24 | 33.64701 | -84.44894 | 2120 ft | 159 kts | 270° |
| 2026-05-04 21:24 | 33.64743 | -84.46170 | 2775 ft | 156 kts | 269° |
| 2026-05-04 21:24 | 33.64869 | -84.47504 | 3197 ft | 168 kts | 279° |
| 2026-05-04 21:24 | 33.65152 | -84.48928 | 3496 ft | 183 kts | 282° |
| 2026-05-04 21:25 | 33.65595 | -84.51030 | 3918 ft | 205 kts | 282° |
| 2026-05-04 21:25 | 33.65826 | -84.52171 | 4140 ft | 216 kts | 281° |
| 2026-05-04 21:25 | 33.66182 | -84.53989 | 4449 ft | 236 kts | 281° |
| 2026-05-04 21:25 | 33.66564 | -84.55990 | 4767 ft | 257 kts | 281° |
| 2026-05-04 21:26 | 33.66971 | -84.58141 | 5263 ft | 270 kts | 281° |
| 2026-05-04 21:26 | 33.67366 | -84.60359 | 5984 ft | 274 kts | 280° |
| 2026-05-04 21:26 | 33.67742 | -84.62578 | 6751 ft | 276 kts | 280° |
| 2026-05-04 21:26 | 33.68124 | -84.64846 | 7512 ft | 278 kts | 280° |
| 2026-05-04 21:27 | 33.68505 | -84.67114 | 8255 ft | 281 kts | 279° |
| 2026-05-04 21:27 | 33.68888 | -84.69399 | 9001 ft | 284 kts | 279° |
| 2026-05-04 21:27 | 33.69281 | -84.71738 | 9757 ft | 287 kts | 279° |
| 2026-05-04 21:27 | 33.69633 | -84.74081 | 10458 ft | 289 kts | 272° |
| 2026-05-04 21:28 | 33.69389 | -84.76497 | 10836 ft | 301 kts | 249° |
| 2026-05-04 21:28 | 33.68331 | -84.78676 | 11370 ft | 308 kts | 233° |
| 2026-05-04 21:28 | 33.67032 | -84.80736 | 12034 ft | 312 kts | 233° |
| 2026-05-04 21:28 | 33.65720 | -84.82815 | 12677 ft | 316 kts | 233° |
| 2026-05-04 21:29 | 33.64405 | -84.84913 | 13312 ft | 319 kts | 234° |
| 2026-05-04 21:29 | 33.63072 | -84.87053 | 13959 ft | 322 kts | 234° |
| 2026-05-04 21:29 | 33.61730 | -84.89214 | 14627 ft | 324 kts | 234° |
| 2026-05-04 21:29 | 33.60388 | -84.91377 | 15304 ft | 325 kts | 234° |
| 2026-05-04 21:30 | 33.59040 | -84.93551 | 15938 ft | 327 kts | 234° |
| 2026-05-04 21:30 | 33.57693 | -84.95722 | 16546 ft | 330 kts | 234° |
| 2026-05-04 21:30 | 33.56322 | -84.97930 | 17172 ft | 331 kts | 234° |
| 2026-05-04 21:30 | 33.54497 | -85.00870 | 17973 ft | 333 kts | 234° |
| 2026-05-04 21:31 | 33.52167 | -85.04613 | 18919 ft | 337 kts | 235° |
| 2026-05-04 21:31 | 33.50769 | -85.06858 | 19365 ft | 342 kts | 235° |
| 2026-05-04 21:31 | 33.49347 | -85.09142 | 19828 ft | 346 kts | 235° |
| 2026-05-04 21:32 | 33.47903 | -85.11460 | 20332 ft | 348 kts | 235° |
| 2026-05-04 21:32 | 33.46443 | -85.13801 | 20847 ft | 350 kts | 236° |
| 2026-05-04 21:32 | 33.45000 | -85.16112 | 21341 ft | 352 kts | 236° |
| 2026-05-04 21:32 | 33.43536 | -85.18503 | 21825 ft | 353 kts | 239° |
| 2026-05-04 21:33 | 33.42303 | -85.21009 | 22294 ft | 353 kts | 245° |
| 2026-05-04 21:33 | 33.41334 | -85.23706 | 22759 ft | 354 kts | 252° |
| 2026-05-04 21:33 | 33.40598 | -85.26511 | 23225 ft | 354 kts | 257° |
| 2026-05-04 21:33 | 33.40366 | -85.29400 | 23645 ft | 354 kts | 275° |
| 2026-05-04 21:34 | 33.40836 | -85.32304 | 24138 ft | 355 kts | 283° |
| 2026-05-04 21:34 | 33.41495 | -85.35149 | 24538 ft | 359 kts | 285° |
| 2026-05-04 21:34 | 33.42194 | -85.38028 | 24926 ft | 361 kts | 285° |
| 2026-05-04 21:34 | 33.42602 | -85.40965 | 25269 ft | 363 kts | 269° |
| 2026-05-04 21:35 | 33.42084 | -85.43917 | 25678 ft | 367 kts | 253° |
| 2026-05-04 21:35 | 33.41202 | -85.46777 | 26060 ft | 369 kts | 252° |
| 2026-05-04 21:35 | 33.40297 | -85.49685 | 26371 ft | 373 kts | 253° |
| 2026-05-04 21:35 | 33.39408 | -85.52586 | 26733 ft | 374 kts | 253° |
| 2026-05-04 21:36 | 33.38515 | -85.55523 | 27088 ft | 376 kts | 253° |
| 2026-05-04 21:36 | 33.37636 | -85.58441 | 27404 ft | 378 kts | 253° |
| 2026-05-04 21:36 | 33.36746 | -85.61403 | 27740 ft | 380 kts | 253° |
| 2026-05-04 21:36 | 33.35845 | -85.64402 | 28057 ft | 382 kts | 253° |
| 2026-05-04 21:37 | 33.34953 | -85.67375 | 28371 ft | 384 kts | 253° |
| 2026-05-04 21:37 | 33.34054 | -85.70378 | 28719 ft | 386 kts | 253° |
| 2026-05-04 21:37 | 33.33146 | -85.73416 | 29039 ft | 388 kts | 253° |
| 2026-05-04 21:37 | 33.32237 | -85.76453 | 29349 ft | 390 kts | 253° |
| 2026-05-04 21:38 | 33.31324 | -85.79494 | 29640 ft | 392 kts | 253° |
| 2026-05-04 21:38 | 33.30403 | -85.82562 | 29959 ft | 394 kts | 253° |
| 2026-05-04 21:38 | 33.29478 | -85.85634 | 30278 ft | 396 kts | 253° |
| 2026-05-04 21:38 | 33.28541 | -85.88742 | 30582 ft | 397 kts | 253° |
| 2026-05-04 21:39 | 33.27609 | -85.91836 | 30897 ft | 397 kts | 253° |
| 2026-05-04 21:39 | 33.26670 | -85.94939 | 31168 ft | 399 kts | 253° |
| 2026-05-04 21:39 | 33.25729 | -85.98051 | 31454 ft | 400 kts | 254° |
| 2026-05-04 21:39 | 33.24787 | -86.01157 | 31765 ft | 400 kts | 254° |
| 2026-05-04 21:40 | 33.23848 | -86.04257 | 32025 ft | 401 kts | 254° |
| 2026-05-04 21:40 | 33.22895 | -86.07400 | 32332 ft | 401 kts | 254° |
| 2026-05-04 21:40 | 33.21951 | -86.10504 | 32723 ft | 398 kts | 255° |
| 2026-05-04 21:40 | 33.21018 | -86.13569 | 33114 ft | 396 kts | 255° |
| 2026-05-04 21:41 | 33.20070 | -86.16679 | 33441 ft | 395 kts | 255° |
| 2026-05-04 21:41 | 33.19148 | -86.19716 | 33783 ft | 393 kts | 255° |
| 2026-05-04 21:41 | 33.18218 | -86.22774 | 34141 ft | 391 kts | 256° |
| 2026-05-04 21:41 | 33.17289 | -86.25803 | 34487 ft | 389 kts | 256° |
| 2026-05-04 21:42 | 33.16374 | -86.28799 | 34740 ft | 389 kts | 256° |
| 2026-05-04 21:42 | 33.15441 | -86.31863 | 35007 ft | 390 kts | 257° |
| 2026-05-04 21:42 | 33.14521 | -86.34867 | 35271 ft | 389 kts | 257° |
| 2026-05-04 21:42 | 33.13594 | -86.37889 | 35516 ft | 389 kts | 257° |
| 2026-05-04 21:43 | 33.12662 | -86.40926 | 35797 ft | 388 kts | 257° |
| 2026-05-04 21:43 | 33.11741 | -86.43930 | 35967 ft | 389 kts | 257° |
| 2026-05-04 21:43 | 33.10789 | -86.46960 | 35968 ft | 393 kts | 255° |
| 2026-05-04 21:44 | 33.08202 | -86.52753 | 35972 ft | 401 kts | 246° |
| 2026-05-04 21:44 | 33.04681 | -86.58019 | 35980 ft | 415 kts | 236° |
| 2026-05-04 21:45 | 33.00237 | -86.62556 | 35975 ft | 429 kts | 226° |
| 2026-05-04 21:45 | 32.95235 | -86.66537 | 35972 ft | 434 kts | 224° |
| 2026-05-04 21:46 | 32.90213 | -86.70474 | 35967 ft | 435 kts | 224° |
| 2026-05-04 21:46 | 32.85177 | -86.74390 | 35965 ft | 433 kts | 224° |
| 2026-05-04 21:47 | 32.80114 | -86.78326 | 35964 ft | 433 kts | 224° |
| 2026-05-04 21:47 | 32.75073 | -86.82250 | 35964 ft | 434 kts | 224° |
| 2026-05-04 21:48 | 32.70047 | -86.86159 | 35961 ft | 433 kts | 225° |
| 2026-05-04 21:48 | 32.64999 | -86.90086 | 35958 ft | 434 kts | 225° |
| 2026-05-04 21:49 | 32.59943 | -86.94013 | 35954 ft | 436 kts | 225° |
| 2026-05-04 21:49 | 32.54881 | -86.97940 | 35957 ft | 435 kts | 225° |
| 2026-05-04 21:50 | 32.49792 | -87.01884 | 35959 ft | 436 kts | 225° |
| 2026-05-04 21:50 | 32.44711 | -87.05813 | 35958 ft | 438 kts | 225° |
| 2026-05-04 21:51 | 32.39616 | -87.09751 | 35962 ft | 438 kts | 225° |
| 2026-05-04 21:51 | 32.34524 | -87.13679 | 35955 ft | 437 kts | 225° |
| 2026-05-04 21:52 | 32.29422 | -87.17610 | 35958 ft | 439 kts | 225° |
| 2026-05-04 21:52 | 32.24290 | -87.21556 | 35952 ft | 440 kts | 226° |
| 2026-05-04 21:53 | 32.19190 | -87.25477 | 35951 ft | 437 kts | 226° |
| 2026-05-04 21:53 | 32.14079 | -87.29398 | 35952 ft | 440 kts | 226° |
| 2026-05-04 21:54 | 32.08935 | -87.33342 | 35946 ft | 440 kts | 226° |
| 2026-05-04 21:54 | 32.03805 | -87.37268 | 35947 ft | 441 kts | 226° |
| 2026-05-04 21:55 | 31.98686 | -87.41182 | 35951 ft | 442 kts | 226° |
| 2026-05-04 21:55 | 31.93505 | -87.45136 | 35955 ft | 443 kts | 226° |
| 2026-05-04 21:56 | 31.88348 | -87.49057 | 35943 ft | 440 kts | 226° |
| 2026-05-04 21:56 | 31.83203 | -87.52946 | 35948 ft | 440 kts | 226° |
| 2026-05-04 21:57 | 31.78062 | -87.56840 | 35951 ft | 443 kts | 227° |
| 2026-05-04 21:57 | 31.72902 | -87.60751 | 35952 ft | 442 kts | 227° |
| 2026-05-04 21:58 | 31.67704 | -87.64690 | 35957 ft | 441 kts | 227° |
| 2026-05-04 21:58 | 31.62567 | -87.68597 | 35960 ft | 444 kts | 226° |
| 2026-05-04 21:59 | 31.57411 | -87.72517 | 35958 ft | 445 kts | 226° |
| 2026-05-04 21:59 | 31.52210 | -87.76449 | 35964 ft | 444 kts | 226° |
| 2026-05-04 22:00 | 31.47016 | -87.80366 | 35957 ft | 444 kts | 226° |
| 2026-05-04 22:00 | 31.40952 | -87.84937 | 35962 ft | 447 kts | 226° |
| 2026-05-04 22:01 | 31.36594 | -87.88213 | 35954 ft | 448 kts | 226° |
| 2026-05-04 22:01 | 31.31368 | -87.92133 | 35954 ft | 445 kts | 226° |
| 2026-05-04 22:02 | 31.26138 | -87.96053 | 35960 ft | 445 kts | 226° |
| 2026-05-04 22:02 | 31.20929 | -87.99957 | 35955 ft | 446 kts | 226° |
| 2026-05-04 22:03 | 31.15703 | -88.03868 | 35959 ft | 447 kts | 227° |
| 2026-05-04 22:03 | 31.10462 | -88.07783 | 35968 ft | 448 kts | 227° |
| 2026-05-04 22:04 | 31.05222 | -88.11691 | 35963 ft | 448 kts | 226° |
| 2026-05-04 22:04 | 30.99987 | -88.15588 | 35958 ft | 446 kts | 227° |
| 2026-05-04 22:05 | 30.94745 | -88.19488 | 35965 ft | 447 kts | 227° |
| 2026-05-04 22:05 | 30.89521 | -88.23368 | 35977 ft | 448 kts | 226° |
| 2026-05-04 22:06 | 30.84235 | -88.27263 | 35586 ft | 447 kts | 226° |
| 2026-05-04 22:06 | 30.81606 | -88.29200 | 35288 ft | 444 kts | 226° |
| 2026-05-04 22:06 | 30.79066 | -88.31133 | 34989 ft | 436 kts | 229° |
| 2026-05-04 22:06 | 30.76671 | -88.33274 | 34688 ft | 425 kts | 235° |
| 2026-05-04 22:07 | 30.74531 | -88.35564 | 34403 ft | 415 kts | 239° |
| 2026-05-04 22:07 | 30.72610 | -88.38000 | 34110 ft | 406 kts | 244° |
| 2026-05-04 22:07 | 30.70910 | -88.40551 | 33816 ft | 400 kts | 248° |
| 2026-05-04 22:07 | 30.69401 | -88.43245 | 33514 ft | 392 kts | 252° |
| 2026-05-04 22:08 | 30.68111 | -88.45984 | 33208 ft | 388 kts | 256° |
| 2026-05-04 22:08 | 30.66874 | -88.48787 | 32762 ft | 391 kts | 255° |
| 2026-05-04 22:08 | 30.65646 | -88.51595 | 32125 ft | 393 kts | 255° |
| 2026-05-04 22:08 | 30.64404 | -88.54420 | 31555 ft | 390 kts | 254° |
| 2026-05-04 22:09 | 30.63180 | -88.57183 | 31134 ft | 384 kts | 254° |
| 2026-05-04 22:09 | 30.61973 | -88.59898 | 30685 ft | 380 kts | 254° |
| 2026-05-04 22:09 | 30.60779 | -88.62600 | 30158 ft | 378 kts | 254° |
| 2026-05-04 22:09 | 30.59574 | -88.65316 | 29632 ft | 376 kts | 253° |
| 2026-05-04 22:10 | 30.58385 | -88.68001 | 29106 ft | 374 kts | 253° |
| 2026-05-04 22:10 | 30.57196 | -88.70682 | 28604 ft | 372 kts | 252° |
| 2026-05-04 22:10 | 30.56030 | -88.73309 | 28153 ft | 370 kts | 252° |
| 2026-05-04 22:10 | 30.54852 | -88.75960 | 27691 ft | 367 kts | 252° |
| 2026-05-04 22:11 | 30.53693 | -88.78556 | 27231 ft | 365 kts | 252° |
| 2026-05-04 22:11 | 30.52529 | -88.81171 | 26772 ft | 362 kts | 252° |
| 2026-05-04 22:11 | 30.51376 | -88.83757 | 26321 ft | 360 kts | 251° |
| 2026-05-04 22:11 | 30.50233 | -88.86320 | 25890 ft | 357 kts | 251° |
| 2026-05-04 22:12 | 30.49103 | -88.88850 | 25435 ft | 355 kts | 251° |
| 2026-05-04 22:12 | 30.47976 | -88.91373 | 25000 ft | 352 kts | 250° |
| 2026-05-04 22:12 | 30.46489 | -88.94700 | 24416 ft | 349 kts | 250° |
| 2026-05-04 22:12 | 30.45745 | -88.96361 | 24116 ft | 348 kts | 250° |
| 2026-05-04 22:13 | 30.44633 | -88.98846 | 23669 ft | 346 kts | 250° |
| 2026-05-04 22:13 | 30.43527 | -89.01311 | 23222 ft | 345 kts | 249° |
| 2026-05-04 22:13 | 30.42429 | -89.03760 | 22780 ft | 343 kts | 249° |
| 2026-05-04 22:13 | 30.41339 | -89.06188 | 22343 ft | 340 kts | 249° |
| 2026-05-04 22:14 | 30.40335 | -89.08627 | 21913 ft | 336 kts | 252° |
| 2026-05-04 22:14 | 30.39415 | -89.11106 | 21482 ft | 334 kts | 253° |
| 2026-05-04 22:14 | 30.38510 | -89.13557 | 21032 ft | 333 kts | 253° |
| 2026-05-04 22:14 | 30.37604 | -89.16016 | 20583 ft | 332 kts | 253° |
| 2026-05-04 22:15 | 30.36693 | -89.18482 | 20141 ft | 330 kts | 253° |
| 2026-05-04 22:15 | 30.35794 | -89.20915 | 19718 ft | 329 kts | 252° |
| 2026-05-04 22:15 | 30.34895 | -89.23347 | 19275 ft | 328 kts | 252° |
| 2026-05-04 22:15 | 30.34006 | -89.25751 | 18840 ft | 326 kts | 252° |
| 2026-05-04 22:16 | 30.33113 | -89.28161 | 18403 ft | 325 kts | 252° |
| 2026-05-04 22:16 | 30.32231 | -89.30550 | 17981 ft | 324 kts | 252° |
| 2026-05-04 22:16 | 30.31347 | -89.32933 | 17557 ft | 323 kts | 252° |
| 2026-05-04 22:16 | 30.30461 | -89.35322 | 17134 ft | 321 kts | 252° |
| 2026-05-04 22:17 | 30.29586 | -89.37688 | 16713 ft | 320 kts | 252° |
| 2026-05-04 22:17 | 30.28719 | -89.40028 | 16294 ft | 319 kts | 251° |
| 2026-05-04 22:17 | 30.27848 | -89.42372 | 15886 ft | 317 kts | 251° |
| 2026-05-04 22:17 | 30.26979 | -89.44708 | 15478 ft | 315 kts | 251° |
| 2026-05-04 22:18 | 30.26116 | -89.47029 | 15068 ft | 313 kts | 251° |
| 2026-05-04 22:18 | 30.25260 | -89.49330 | 14673 ft | 312 kts | 251° |
| 2026-05-04 22:18 | 30.24409 | -89.51615 | 14257 ft | 311 kts | 251° |
| 2026-05-04 22:18 | 30.23556 | -89.53905 | 13844 ft | 310 kts | 250° |
| 2026-05-04 22:19 | 30.22699 | -89.56201 | 13425 ft | 309 kts | 250° |
| 2026-05-04 22:19 | 30.21857 | -89.58457 | 13038 ft | 307 kts | 250° |
| 2026-05-04 22:19 | 30.21009 | -89.60730 | 12642 ft | 306 kts | 250° |
| 2026-05-04 22:19 | 30.20171 | -89.62973 | 12247 ft | 305 kts | 250° |
| 2026-05-04 22:20 | 30.19331 | -89.65223 | 11837 ft | 304 kts | 249° |
| 2026-05-04 22:20 | 30.18509 | -89.67429 | 11421 ft | 303 kts | 249° |
| 2026-05-04 22:20 | 30.17676 | -89.69662 | 11091 ft | 298 kts | 249° |
| 2026-05-04 22:20 | 30.16875 | -89.71798 | 10974 ft | 285 kts | 249° |
| 2026-05-04 22:21 | 30.16100 | -89.73866 | 10958 ft | 278 kts | 249° |
| 2026-05-04 22:21 | 30.15335 | -89.75933 | 10962 ft | 279 kts | 249° |
| 2026-05-04 22:21 | 30.14577 | -89.77982 | 10955 ft | 278 kts | 249° |
| 2026-05-04 22:21 | 30.13874 | -89.80051 | 10936 ft | 276 kts | 258° |
| 2026-05-04 22:22 | 30.13837 | -89.82234 | 10945 ft | 272 kts | 281° |
| 2026-05-04 22:22 | 30.14334 | -89.84360 | 10955 ft | 273 kts | 287° |
| 2026-05-04 22:22 | 30.14916 | -89.86407 | 10800 ft | 268 kts | 288° |
| 2026-05-04 22:22 | 30.15516 | -89.88442 | 10383 ft | 268 kts | 288° |
| 2026-05-04 22:23 | 30.16123 | -89.90465 | 9956 ft | 270 kts | 288° |
| 2026-05-04 22:23 | 30.16743 | -89.92509 | 9551 ft | 269 kts | 288° |
| 2026-05-04 22:23 | 30.17368 | -89.94549 | 9147 ft | 268 kts | 289° |
| 2026-05-04 22:23 | 30.17987 | -89.96561 | 8730 ft | 269 kts | 289° |
| 2026-05-04 22:24 | 30.18614 | -89.98599 | 8338 ft | 268 kts | 288° |
| 2026-05-04 22:24 | 30.19239 | -90.00626 | 7950 ft | 268 kts | 289° |
| 2026-05-04 22:24 | 30.19857 | -90.02634 | 7533 ft | 268 kts | 289° |
| 2026-05-04 22:24 | 30.20479 | -90.04659 | 7119 ft | 268 kts | 289° |
| 2026-05-04 22:25 | 30.21106 | -90.06692 | 6724 ft | 268 kts | 289° |
| 2026-05-04 22:25 | 30.21728 | -90.08703 | 6324 ft | 267 kts | 289° |
| 2026-05-04 22:25 | 30.22361 | -90.10738 | 5924 ft | 267 kts | 289° |
| 2026-05-04 22:25 | 30.22989 | -90.12748 | 5519 ft | 268 kts | 289° |
| 2026-05-04 22:26 | 30.23626 | -90.14774 | 5135 ft | 267 kts | 289° |
| 2026-05-04 22:26 | 30.24254 | -90.16766 | 4759 ft | 266 kts | 288° |
| 2026-05-04 22:26 | 30.24899 | -90.18788 | 4381 ft | 266 kts | 289° |
| 2026-05-04 22:26 | 30.25539 | -90.20777 | 4045 ft | 264 kts | 289° |
| 2026-05-04 22:27 | 30.26179 | -90.22765 | 3964 ft | 265 kts | 289° |
| 2026-05-04 22:27 | 30.26824 | -90.24770 | 3950 ft | 263 kts | 289° |
| 2026-05-04 22:27 | 30.27447 | -90.26688 | 3936 ft | 247 kts | 289° |
| 2026-05-04 22:27 | 30.28023 | -90.28484 | 3924 ft | 231 kts | 285° |
| 2026-05-04 22:28 | 30.28127 | -90.30242 | 3921 ft | 218 kts | 253° |
| 2026-05-04 22:28 | 30.27412 | -90.31762 | 3945 ft | 215 kts | 230° |
| 2026-05-04 22:28 | 30.26452 | -90.33083 | 3939 ft | 217 kts | 229° |
| 2026-05-04 22:28 | 30.25473 | -90.34415 | 3883 ft | 214 kts | 229° |
| 2026-05-04 22:29 | 30.24519 | -90.35722 | 3591 ft | 214 kts | 229° |
| 2026-05-04 22:29 | 30.23554 | -90.37048 | 3266 ft | 215 kts | 229° |
| 2026-05-04 22:29 | 30.22602 | -90.38367 | 2976 ft | 214 kts | 229° |
| 2026-05-04 22:29 | 30.21653 | -90.39680 | 2696 ft | 213 kts | 226° |
| 2026-05-04 22:30 | 30.20524 | -90.40781 | 2405 ft | 210 kts | 213° |
| 2026-05-04 22:30 | 30.19316 | -90.41688 | 2301 ft | 198 kts | 212° |
| 2026-05-04 22:30 | 30.18194 | -90.42522 | 2170 ft | 187 kts | 212° |
| 2026-05-04 22:30 | 30.17131 | -90.43333 | 1996 ft | 178 kts | 213° |
| 2026-05-04 22:31 | 30.16111 | -90.44129 | 1967 ft | 178 kts | 213° |
| 2026-05-04 22:31 | 30.15094 | -90.44934 | 1954 ft | 178 kts | 213° |
| 2026-05-04 22:31 | 30.14067 | -90.45753 | 1946 ft | 179 kts | 213° |
| 2026-05-04 22:31 | 30.13045 | -90.46572 | 1949 ft | 179 kts | 214° |
| 2026-05-04 22:32 | 30.12024 | -90.47392 | 1950 ft | 179 kts | 214° |
| 2026-05-04 22:32 | 30.10995 | -90.48220 | 1951 ft | 179 kts | 214° |
| 2026-05-04 22:32 | 30.09973 | -90.49043 | 1950 ft | 179 kts | 214° |
| 2026-05-04 22:32 | 30.08951 | -90.49867 | 1949 ft | 178 kts | 214° |
| 2026-05-04 22:33 | 30.07929 | -90.50691 | 1948 ft | 179 kts | 214° |
| 2026-05-04 22:33 | 30.06901 | -90.51519 | 1947 ft | 179 kts | 214° |
| 2026-05-04 22:33 | 30.05767 | -90.52037 | 1916 ft | 178 kts | 182° |
| 2026-05-04 22:33 | 30.04612 | -90.51546 | 1919 ft | 180 kts | 139° |
| 2026-05-04 22:34 | 30.04067 | -90.50253 | 1970 ft | 186 kts | 101° |
| 2026-05-04 22:34 | 30.04048 | -90.48749 | 1963 ft | 187 kts | 90° |
| 2026-05-04 22:34 | 30.04022 | -90.47256 | 1952 ft | 186 kts | 97° |
| 2026-05-04 22:34 | 30.03835 | -90.45794 | 1951 ft | 185 kts | 103° |
| 2026-05-04 22:35 | 30.03560 | -90.44332 | 1949 ft | 185 kts | 106° |
| 2026-05-04 22:35 | 30.03244 | -90.42909 | 1947 ft | 184 kts | 108° |
| 2026-05-04 22:35 | 30.02902 | -90.41481 | 1945 ft | 184 kts | 108° |
| 2026-05-04 22:35 | 30.02556 | -90.40071 | 1898 ft | 184 kts | 108° |
| 2026-05-04 22:36 | 30.02209 | -90.38653 | 1708 ft | 183 kts | 108° |
| 2026-05-04 22:36 | 30.01863 | -90.37237 | 1478 ft | 177 kts | 108° |
| 2026-05-04 22:36 | 30.01543 | -90.35913 | 1255 ft | 165 kts | 108° |
| 2026-05-04 22:36 | 30.01249 | -90.34695 | 1044 ft | 151 kts | 109° |
| 2026-05-04 22:37 | 30.00977 | -90.33573 | 860 ft | 144 kts | 109° |
| 2026-05-04 22:37 | 30.00708 | -90.32461 | 702 ft | 143 kts | 108° |
| 2026-05-04 22:37 | 30.00455 | -90.31354 | 533 ft | 143 kts | 110° |
| 2026-05-04 22:37 | 30.00194 | -90.30250 | 381 ft | 142 kts | 109° |
| 2026-05-04 22:38 | 29.99931 | -90.29145 | 225 ft | 141 kts | 112° |
| 2026-05-04 22:38 | 29.99646 | -90.28076 | 35 ft | 140 kts | 112° |
| 2026-05-04 22:38 | 29.99401 | -90.27095 | 11 ft | 105 kts | 107° |
| 2026-05-04 22:38 | 29.99257 | -90.26489 | 11 ft | 58 kts | 104° |
| 2026-05-04 22:39 | 29.99141 | -90.26006 | 11 ft | 64 kts | 106° |
| 2026-05-04 22:39 | 29.99099 | -90.25663 | 11 ft | 24 kts | 52° |
| 2026-05-04 22:39 | 29.99190 | -90.25622 | 11 ft | 10 kts | 23° |
| 2026-05-04 22:39 | 29.99210 | -90.25513 | 11 ft | 17 kts | 103° |
| 2026-05-04 22:40 | 29.99196 | -90.25365 | 11 ft | 18 kts | 90° |
| 2026-05-04 22:40 | 29.99269 | -90.25249 | 11 ft | 18 kts | 13° |
| 2026-05-04 22:40 | 29.99322 | -90.25251 | 11 ft | 5 kts | 315° |
| 2026-05-04 22:40 | 29.99341 | -90.25294 | 11 ft | 3 kts | 292° |
| 2026-05-04 22:41 | 29.99342 | -90.25298 | 11 ft | 0 kts | 292° |